sensor_id;sensor_type;location;lat;lon;timestamp;P1;durP1;ratioP1;P2;durP2;ratioP2
73315;SDS011;61545;53.726;-0.444;2023-05-23T00:03:10;7.8;;;1.8;;
73315;SDS011;61545;53.726;-0.444;2023-05-23T00:08:12;4.3;;;1.5;;
73315;SDS011;61545;53.726;-0.444;2023-05-23T00:13:10;7.4;;;1.9;;
73315;SDS011;61545;53.726;-0.444;2023-05-23T00:18:11;8.0;;;1.7;;
73315;SDS011;61545;53.726;-0.444;2023-05-23T00:23:10;7.8;;;1.6;;
73315;SDS011;61545;53.726;-0.444;2023-05-23T00:28:10;5.7;;;1.6;;
73315;SDS011;61545;53.726;-0.444;2023-05-23T00:33:10;5.7;;;1.6;;
73315;SDS011;61545;53.726;-0.444;2023-05-23T00:38:07;9.1;;;2;;
73315;SDS011;61545;53.726;-0.444;2023-05-23T00:43:11;6.8;;;1.8;;
73315;SDS011;61545;53.726;-0.444;2023-05-23T00:48:07;9.2;;;1.8;;
73315;SDS011;61545;53.726;-0.444;2023-05-23T00:53:10;6.8;;;1.7;;
73315;SDS011;61545;53.726;-0.444;2023-05-23T00:58:07;8.4;;;2;;
73315;SDS011;61545;53.726;-0.444;2023-05-23T01:08:07;8.2;;;1.7;;
73315;SDS011;61545;53.726;-0.444;2023-05-23T01:13:19;6.1;;;1.5;;
73315;SDS011;61545;53.726;-0.444;2023-05-23T01:18:09;7.3;;;1.9;;
73315;SDS011;61545;53.726;-0.444;2023-05-23T01:23:13;5.6;;;1.8;;
73315;SDS011;61545;53.726;-0.444;2023-05-23T01:28:10;6.4;;;1.9;;
73315;SDS011;61545;53.726;-0.444;2023-05-23T01:33:11;6.4;;;1.9;;
73315;SDS011;61545;53.726;-0.444;2023-05-23T01:38:07;9.0;;;1.7;;
73315;SDS011;61545;53.726;-0.444;2023-05-23T01:43:10;7.7;;;1.7;;
73315;SDS011;61545;53.726;-0.444;2023-05-23T01:48:10;9.3;;;2;;
73315;SDS011;61545;53.726;-0.444;2023-05-23T01:58:10;7.5;;;1.7;;
73315;SDS011;61545;53.726;-0.444;2023-05-23T02:03:10;7.5;;;1.7;;
73315;SDS011;61545;53.726;-0.444;2023-05-23T02:08:10;9.4;;;2;;
73315;SDS011;61545;53.726;-0.444;2023-05-23T02:13:07;6.3;;;1.7;;
73315;SDS011;61545;53.726;-0.444;2023-05-23T02:23:08;8.7;;;1.7;;
73315;SDS011;61545;53.726;-0.444;2023-05-23T02:28:07;9.2;;;1.7;;
73315;SDS011;61545;53.726;-0.444;2023-05-23T02:33:07;9.2;;;1.7;;
73315;SDS011;61545;53.726;-0.444;2023-05-23T02:38:10;10.6;;;1.7;;
73315;SDS011;61545;53.726;-0.444;2023-05-23T02:48:07;7.2;;;2.4;;
73315;SDS011;61545;53.726;-0.444;2023-05-23T02:58:07;10.4;;;1.7;;
73315;SDS011;61545;53.726;-0.444;2023-05-23T03:03:10;10.4;;;1.7;;
73315;SDS011;61545;53.726;-0.444;2023-05-23T03:13:10;6.9;;;1.6;;
73315;SDS011;61545;53.726;-0.444;2023-05-23T03:18:10;5.8;;;1.5;;
73315;SDS011;61545;53.726;-0.444;2023-05-23T03:23:07;9.2;;;1.8;;
73315;SDS011;61545;53.726;-0.444;2023-05-23T03:28:10;7.2;;;1.9;;
73315;SDS011;61545;53.726;-0.444;2023-05-23T03:33:10;7.2;;;1.9;;
73315;SDS011;61545;53.726;-0.444;2023-05-23T03:38:07;6.5;;;1.4;;
73315;SDS011;61545;53.726;-0.444;2023-05-23T03:43:10;7.2;;;1.8;;
73315;SDS011;61545;53.726;-0.444;2023-05-23T03:48:12;5.1;;;1.5;;
73315;SDS011;61545;53.726;-0.444;2023-05-23T03:53:10;9.2;;;1.7;;
73315;SDS011;61545;53.726;-0.444;2023-05-23T03:58:10;10.3;;;2;;
73315;SDS011;61545;53.726;-0.444;2023-05-23T04:03:11;10.3;;;2;;
73315;SDS011;61545;53.726;-0.444;2023-05-23T04:08:10;8.4;;;1.9;;
73315;SDS011;61545;53.726;-0.444;2023-05-23T04:13:07;8.7;;;1.8;;
73315;SDS011;61545;53.726;-0.444;2023-05-23T04:18:07;8.2;;;2;;
73315;SDS011;61545;53.726;-0.444;2023-05-23T04:23:11;7.9;;;1.9;;
73315;SDS011;61545;53.726;-0.444;2023-05-23T04:28:13;6.7;;;2;;
73315;SDS011;61545;53.726;-0.444;2023-05-23T04:33:07;6.7;;;2;;
73315;SDS011;61545;53.726;-0.444;2023-05-23T04:38:07;8.4;;;1.8;;
73315;SDS011;61545;53.726;-0.444;2023-05-23T04:43:10;9.2;;;2;;
73315;SDS011;61545;53.726;-0.444;2023-05-23T04:48:07;9.2;;;1.9;;
73315;SDS011;61545;53.726;-0.444;2023-05-23T04:53:10;8.1;;;2.1;;
73315;SDS011;61545;53.726;-0.444;2023-05-23T04:58:07;10.5;;;2;;
73315;SDS011;61545;53.726;-0.444;2023-05-23T05:03:09;10.5;;;2;;
73315;SDS011;61545;53.726;-0.444;2023-05-23T05:08:07;9.3;;;2;;
73315;SDS011;61545;53.726;-0.444;2023-05-23T05:13:10;9.5;;;1.9;;
73315;SDS011;61545;53.726;-0.444;2023-05-23T05:23:07;11.0;;;2.3;;
73315;SDS011;61545;53.726;-0.444;2023-05-23T05:28:10;6.9;;;1.9;;
73315;SDS011;61545;53.726;-0.444;2023-05-23T05:33:10;6.9;;;1.9;;
73315;SDS011;61545;53.726;-0.444;2023-05-23T05:38:07;10.5;;;2.2;;
73315;SDS011;61545;53.726;-0.444;2023-05-23T05:43:21;7.2;;;1.8;;
73315;SDS011;61545;53.726;-0.444;2023-05-23T05:48:22;8.6;;;1.9;;
73315;SDS011;61545;53.726;-0.444;2023-05-23T05:53:23;11.7;;;2.1;;
73315;SDS011;61545;53.726;-0.444;2023-05-23T06:03:11;7.2;;;1.8;;
73315;SDS011;61545;53.726;-0.444;2023-05-23T06:08:10;9.2;;;2;;
73315;SDS011;61545;53.726;-0.444;2023-05-23T06:13:14;7.8;;;1.8;;
73315;SDS011;61545;53.726;-0.444;2023-05-23T06:18:07;11.0;;;2;;
73315;SDS011;61545;53.726;-0.444;2023-05-23T06:23:10;8.5;;;2.2;;
73315;SDS011;61545;53.726;-0.444;2023-05-23T06:28:10;8.3;;;1.9;;
73315;SDS011;61545;53.726;-0.444;2023-05-23T06:33:21;8.3;;;1.9;;
73315;SDS011;61545;53.726;-0.444;2023-05-23T06:38:13;10.3;;;2.2;;
73315;SDS011;61545;53.726;-0.444;2023-05-23T06:43:07;12.5;;;2.7;;
73315;SDS011;61545;53.726;-0.444;2023-05-23T06:48:09;12.6;;;2.6;;
73315;SDS011;61545;53.726;-0.444;2023-05-23T06:53:21;8.6;;;1.8;;
73315;SDS011;61545;53.726;-0.444;2023-05-23T06:58:09;11.1;;;2.4;;
73315;SDS011;61545;53.726;-0.444;2023-05-23T07:03:12;11.1;;;2.4;;
73315;SDS011;61545;53.726;-0.444;2023-05-23T07:13:11;10.2;;;2.1;;
73315;SDS011;61545;53.726;-0.444;2023-05-23T07:18:21;9.0;;;2.3;;
73315;SDS011;61545;53.726;-0.444;2023-05-23T07:23:07;7.8;;;2.3;;
73315;SDS011;61545;53.726;-0.444;2023-05-23T07:28:11;16.3;;;3.1;;
73315;SDS011;61545;53.726;-0.444;2023-05-23T07:33:13;16.3;;;3.1;;
73315;SDS011;61545;53.726;-0.444;2023-05-23T07:38:10;15.7;;;2.7;;
73315;SDS011;61545;53.726;-0.444;2023-05-23T07:43:07;12.5;;;2.3;;
73315;SDS011;61545;53.726;-0.444;2023-05-23T07:58:07;12.1;;;2.7;;
73315;SDS011;61545;53.726;-0.444;2023-05-23T08:03:14;12.1;;;2.7;;
73315;SDS011;61545;53.726;-0.444;2023-05-23T08:08:10;7.6;;;1.9;;
73315;SDS011;61545;53.726;-0.444;2023-05-23T08:18:13;8.9;;;2.2;;
73315;SDS011;61545;53.726;-0.444;2023-05-23T08:23:07;11.1;;;2.4;;
73315;SDS011;61545;53.726;-0.444;2023-05-23T08:28:12;7.0;;;2.3;;
73315;SDS011;61545;53.726;-0.444;2023-05-23T08:33:07;7.0;;;2.3;;
73315;SDS011;61545;53.726;-0.444;2023-05-23T08:38:08;8.0;;;2.2;;
73315;SDS011;61545;53.726;-0.444;2023-05-23T08:43:07;8.3;;;2.2;;
73315;SDS011;61545;53.726;-0.444;2023-05-23T08:48:12;12.9;;;2.7;;
73315;SDS011;61545;53.726;-0.444;2023-05-23T08:58:13;8.9;;;2.3;;
73315;SDS011;61545;53.726;-0.444;2023-05-23T09:03:07;8.9;;;2.3;;
73315;SDS011;61545;53.726;-0.444;2023-05-23T09:08:07;14.8;;;2.7;;
73315;SDS011;61545;53.726;-0.444;2023-05-23T09:13:07;11.1;;;2.3;;
73315;SDS011;61545;53.726;-0.444;2023-05-23T09:23:10;11.2;;;2.4;;
73315;SDS011;61545;53.726;-0.444;2023-05-23T09:28:08;8.9;;;2.1;;
73315;SDS011;61545;53.726;-0.444;2023-05-23T09:33:07;8.9;;;2.1;;
73315;SDS011;61545;53.726;-0.444;2023-05-23T09:38:10;16.5;;;2.7;;
73315;SDS011;61545;53.726;-0.444;2023-05-23T09:43:10;8.7;;;2.2;;
73315;SDS011;61545;53.726;-0.444;2023-05-23T09:48:10;8.1;;;2.4;;
73315;SDS011;61545;53.726;-0.444;2023-05-23T09:53:10;8.1;;;2.2;;
73315;SDS011;61545;53.726;-0.444;2023-05-23T10:03:13;8.5;;;2.4;;
73315;SDS011;61545;53.726;-0.444;2023-05-23T10:08:09;8.6;;;2.4;;
73315;SDS011;61545;53.726;-0.444;2023-05-23T10:13:10;8.7;;;2.4;;
73315;SDS011;61545;53.726;-0.444;2023-05-23T10:18:10;5.6;;;1.8;;
73315;SDS011;61545;53.726;-0.444;2023-05-23T10:23:10;11.2;;;2.6;;
73315;SDS011;61545;53.726;-0.444;2023-05-23T10:28:07;10.1;;;2.1;;
73315;SDS011;61545;53.726;-0.444;2023-05-23T10:33:07;10.1;;;2.1;;
73315;SDS011;61545;53.726;-0.444;2023-05-23T10:43:17;8.7;;;2.1;;
73315;SDS011;61545;53.726;-0.444;2023-05-23T10:53:07;12.3;;;2.6;;
73315;SDS011;61545;53.726;-0.444;2023-05-23T10:58:15;5.6;;;2;;
73315;SDS011;61545;53.726;-0.444;2023-05-23T11:03:15;5.6;;;2;;
73315;SDS011;61545;53.726;-0.444;2023-05-23T11:08:11;8.5;;;2.3;;
73315;SDS011;61545;53.726;-0.444;2023-05-23T11:13:10;6.7;;;2.2;;
73315;SDS011;61545;53.726;-0.444;2023-05-23T11:18:07;10.8;;;2.2;;
73315;SDS011;61545;53.726;-0.444;2023-05-23T11:23:07;10.1;;;2.3;;
73315;SDS011;61545;53.726;-0.444;2023-05-23T11:28:07;8.5;;;2.4;;
73315;SDS011;61545;53.726;-0.444;2023-05-23T11:33:11;8.5;;;2.4;;
73315;SDS011;61545;53.726;-0.444;2023-05-23T11:38:08;6.8;;;2.2;;
73315;SDS011;61545;53.726;-0.444;2023-05-23T11:43:14;5.6;;;1.9;;
73315;SDS011;61545;53.726;-0.444;2023-05-23T11:48:13;5.8;;;2;;
73315;SDS011;61545;53.726;-0.444;2023-05-23T11:53:10;8.1;;;2.2;;
73315;SDS011;61545;53.726;-0.444;2023-05-23T12:03:07;5.2;;;1.8;;
73315;SDS011;61545;53.726;-0.444;2023-05-23T12:08:11;5.3;;;1.8;;
73315;SDS011;61545;53.726;-0.444;2023-05-23T12:13:07;4.4;;;1.8;;
73315;SDS011;61545;53.726;-0.444;2023-05-23T12:18:07;7.5;;;1.9;;
73315;SDS011;61545;53.726;-0.444;2023-05-23T12:28:11;8.9;;;2.2;;
73315;SDS011;61545;53.726;-0.444;2023-05-23T12:33:10;8.9;;;2.2;;
73315;SDS011;61545;53.726;-0.444;2023-05-23T12:43:08;6.2;;;2.1;;
73315;SDS011;61545;53.726;-0.444;2023-05-23T12:48:07;7.6;;;2.2;;
73315;SDS011;61545;53.726;-0.444;2023-05-23T12:53:09;7.7;;;2.1;;
73315;SDS011;61545;53.726;-0.444;2023-05-23T12:58:07;8.5;;;2;;
73315;SDS011;61545;53.726;-0.444;2023-05-23T13:03:07;8.5;;;2;;
73315;SDS011;61545;53.726;-0.444;2023-05-23T13:08:10;3.1;;;1.5;;
73315;SDS011;61545;53.726;-0.444;2023-05-23T13:13:07;7.0;;;2.2;;
73315;SDS011;61545;53.726;-0.444;2023-05-23T13:18:10;11.6;;;2.2;;
73315;SDS011;61545;53.726;-0.444;2023-05-23T13:23:13;4.3;;;1.6;;
73315;SDS011;61545;53.726;-0.444;2023-05-23T13:28:08;4.3;;;1.6;;
73315;SDS011;61545;53.726;-0.444;2023-05-23T13:33:10;5.6;;;1.7;;
73315;SDS011;61545;53.726;-0.444;2023-05-23T13:38:12;4.7;;;1.7;;
73315;SDS011;61545;53.726;-0.444;2023-05-23T13:48:09;4.4;;;1.7;;
73315;SDS011;61545;53.726;-0.444;2023-05-23T13:53:07;5.2;;;1.9;;
73315;SDS011;61545;53.726;-0.444;2023-05-23T13:58:07;5.2;;;1.9;;
73315;SDS011;61545;53.726;-0.444;2023-05-23T14:03:11;6.0;;;2.1;;
73315;SDS011;61545;53.726;-0.444;2023-05-23T14:08:10;4.9;;;1.7;;
73315;SDS011;61545;53.726;-0.444;2023-05-23T14:13:07;4.1;;;1.7;;
73315;SDS011;61545;53.726;-0.444;2023-05-23T14:18:07;10.1;;;2.1;;
73315;SDS011;61545;53.726;-0.444;2023-05-23T14:23:11;14.4;;;3.6;;
73315;SDS011;61545;53.726;-0.444;2023-05-23T14:28:12;14.4;;;3.6;;
73315;SDS011;61545;53.726;-0.444;2023-05-23T14:33:10;5.9;;;2.2;;
73315;SDS011;61545;53.726;-0.444;2023-05-23T14:38:07;7.2;;;2;;
73315;SDS011;61545;53.726;-0.444;2023-05-23T14:43:08;7.9;;;2.3;;
73315;SDS011;61545;53.726;-0.444;2023-05-23T14:53:12;6.2;;;1.9;;
73315;SDS011;61545;53.726;-0.444;2023-05-23T14:58:10;6.2;;;1.9;;
73315;SDS011;61545;53.726;-0.444;2023-05-23T15:03:21;4.3;;;2;;
73315;SDS011;61545;53.726;-0.444;2023-05-23T15:08:20;4.1;;;1.8;;
73315;SDS011;61545;53.726;-0.444;2023-05-23T15:13:11;4.2;;;1.8;;
73315;SDS011;61545;53.726;-0.444;2023-05-23T15:18:07;8.0;;;2.2;;
73315;SDS011;61545;53.726;-0.444;2023-05-23T15:23:09;5.2;;;2.1;;
73315;SDS011;61545;53.726;-0.444;2023-05-23T15:28:23;5.2;;;2.1;;
73315;SDS011;61545;53.726;-0.444;2023-05-23T15:38:15;6.1;;;2.6;;
73315;SDS011;61545;53.726;-0.444;2023-05-23T15:43:10;5.9;;;2.3;;
73315;SDS011;61545;53.726;-0.444;2023-05-23T15:48:09;9.4;;;2.4;;
73315;SDS011;61545;53.726;-0.444;2023-05-23T15:53:09;14.4;;;2.7;;
73315;SDS011;61545;53.726;-0.444;2023-05-23T15:58:08;14.4;;;2.7;;
73315;SDS011;61545;53.726;-0.444;2023-05-23T16:03:11;11.8;;;3.1;;
73315;SDS011;61545;53.726;-0.444;2023-05-23T16:08:07;7.0;;;2.1;;
73315;SDS011;61545;53.726;-0.444;2023-05-23T16:13:10;13.0;;;2.8;;
73315;SDS011;61545;53.726;-0.444;2023-05-23T16:18:19;8.7;;;2.5;;
73315;SDS011;61545;53.726;-0.444;2023-05-23T16:23:23;13.2;;;2.2;;
73315;SDS011;61545;53.726;-0.444;2023-05-23T16:33:15;11.8;;;2.6;;
73315;SDS011;61545;53.726;-0.444;2023-05-23T16:38:13;13.4;;;3;;
73315;SDS011;61545;53.726;-0.444;2023-05-23T16:48:13;8.8;;;2.6;;
73315;SDS011;61545;53.726;-0.444;2023-05-23T16:53:10;11.6;;;2.4;;
73315;SDS011;61545;53.726;-0.444;2023-05-23T16:58:08;11.6;;;2.4;;
73315;SDS011;61545;53.726;-0.444;2023-05-23T17:03:10;12.2;;;2.9;;
73315;SDS011;61545;53.726;-0.444;2023-05-23T17:08:10;9.3;;;2.5;;
73315;SDS011;61545;53.726;-0.444;2023-05-23T17:13:10;16.2;;;3.1;;
73315;SDS011;61545;53.726;-0.444;2023-05-23T17:18:19;8.9;;;2.6;;
73315;SDS011;61545;53.726;-0.444;2023-05-23T17:23:18;14.8;;;3.2;;
73315;SDS011;61545;53.726;-0.444;2023-05-23T17:28:20;14.8;;;3.2;;
73315;SDS011;61545;53.726;-0.444;2023-05-23T17:43:11;14.2;;;3;;
73315;SDS011;61545;53.726;-0.444;2023-05-23T17:48:13;11.8;;;2.6;;
73315;SDS011;61545;53.726;-0.444;2023-05-23T17:53:12;14.2;;;3.3;;
73315;SDS011;61545;53.726;-0.444;2023-05-23T17:58:10;14.2;;;3.3;;
73315;SDS011;61545;53.726;-0.444;2023-05-23T18:03:17;14.1;;;3.2;;
73315;SDS011;61545;53.726;-0.444;2023-05-23T18:08:08;9.7;;;2.3;;
73315;SDS011;61545;53.726;-0.444;2023-05-23T18:13:08;9.4;;;2.3;;
73315;SDS011;61545;53.726;-0.444;2023-05-23T18:23:08;10.6;;;2.7;;
73315;SDS011;61545;53.726;-0.444;2023-05-23T18:28:10;10.6;;;2.7;;
73315;SDS011;61545;53.726;-0.444;2023-05-23T18:33:12;15.0;;;2.7;;
73315;SDS011;61545;53.726;-0.444;2023-05-23T18:38:10;10.3;;;2.4;;
73315;SDS011;61545;53.726;-0.444;2023-05-23T18:43:10;11.5;;;2.6;;
73315;SDS011;61545;53.726;-0.444;2023-05-23T18:48:12;7.8;;;2.5;;
73315;SDS011;61545;53.726;-0.444;2023-05-23T18:53:08;9.8;;;2.4;;
73315;SDS011;61545;53.726;-0.444;2023-05-23T18:58:11;9.8;;;2.4;;
73315;SDS011;61545;53.726;-0.444;2023-05-23T19:03:11;13.2;;;3.5;;
73315;SDS011;61545;53.726;-0.444;2023-05-23T19:08:22;7.7;;;2.2;;
73315;SDS011;61545;53.726;-0.444;2023-05-23T19:13:31;7.5;;;2.3;;
73315;SDS011;61545;53.726;-0.444;2023-05-23T19:18:13;9.9;;;2.5;;
73315;SDS011;61545;53.726;-0.444;2023-05-23T19:23:10;11.0;;;2.5;;
73315;SDS011;61545;53.726;-0.444;2023-05-23T19:28:09;11.0;;;2.5;;
73315;SDS011;61545;53.726;-0.444;2023-05-23T19:33:11;7.9;;;2.4;;
73315;SDS011;61545;53.726;-0.444;2023-05-23T19:38:20;9.3;;;2.7;;
73315;SDS011;61545;53.726;-0.444;2023-05-23T19:43:21;8.2;;;2.3;;
73315;SDS011;61545;53.726;-0.444;2023-05-23T19:48:09;8.0;;;1.9;;
73315;SDS011;61545;53.726;-0.444;2023-05-23T19:53:10;8.7;;;2.2;;
73315;SDS011;61545;53.726;-0.444;2023-05-23T19:58:08;8.7;;;2.2;;
73315;SDS011;61545;53.726;-0.444;2023-05-23T20:03:23;10.3;;;2.3;;
73315;SDS011;61545;53.726;-0.444;2023-05-23T20:08:19;10.1;;;2.7;;
73315;SDS011;61545;53.726;-0.444;2023-05-23T20:13:20;8.4;;;2.4;;
73315;SDS011;61545;53.726;-0.444;2023-05-23T20:18:35;7.8;;;2.7;;
73315;SDS011;61545;53.726;-0.444;2023-05-23T20:28:12;8.0;;;2;;
73315;SDS011;61545;53.726;-0.444;2023-05-23T20:33:08;12.8;;;2.8;;
73315;SDS011;61545;53.726;-0.444;2023-05-23T20:38:10;17.0;;;2.3;;
73315;SDS011;61545;53.726;-0.444;2023-05-23T20:43:22;10.2;;;2.3;;
73315;SDS011;61545;53.726;-0.444;2023-05-23T20:48:11;11.5;;;2.4;;
73315;SDS011;61545;53.726;-0.444;2023-05-23T20:53:11;8.7;;;2.7;;
73315;SDS011;61545;53.726;-0.444;2023-05-23T20:58:11;8.7;;;2.7;;
73315;SDS011;61545;53.726;-0.444;2023-05-23T21:03:18;11.4;;;2.9;;
73315;SDS011;61545;53.726;-0.444;2023-05-23T21:08:08;10.3;;;2.6;;
73315;SDS011;61545;53.726;-0.444;2023-05-23T21:13:12;4.8;;;1.8;;
73315;SDS011;61545;53.726;-0.444;2023-05-23T21:18:10;6.5;;;2.4;;
73315;SDS011;61545;53.726;-0.444;2023-05-23T21:23:13;7.5;;;2.2;;
73315;SDS011;61545;53.726;-0.444;2023-05-23T21:28:11;7.5;;;2.2;;
73315;SDS011;61545;53.726;-0.444;2023-05-23T21:33:11;13.8;;;2.6;;
73315;SDS011;61545;53.726;-0.444;2023-05-23T21:38:21;13.8;;;2.6;;
73315;SDS011;61545;53.726;-0.444;2023-05-23T21:43:13;12.5;;;2.9;;
73315;SDS011;61545;53.726;-0.444;2023-05-23T21:48:08;13.6;;;3.2;;
73315;SDS011;61545;53.726;-0.444;2023-05-23T21:53:10;6.7;;;2.3;;
73315;SDS011;61545;53.726;-0.444;2023-05-23T21:58:08;6.7;;;2.3;;
73315;SDS011;61545;53.726;-0.444;2023-05-23T22:08:08;9.0;;;2.9;;
73315;SDS011;61545;53.726;-0.444;2023-05-23T22:13:08;11.1;;;2.7;;
73315;SDS011;61545;53.726;-0.444;2023-05-23T22:18:12;8.7;;;2.1;;
73315;SDS011;61545;53.726;-0.444;2023-05-23T22:23:10;13.7;;;2.9;;
73315;SDS011;61545;53.726;-0.444;2023-05-23T22:28:13;13.7;;;2.9;;
73315;SDS011;61545;53.726;-0.444;2023-05-23T22:33:10;14.3;;;2.7;;
73315;SDS011;61545;53.726;-0.444;2023-05-23T22:38:18;8.0;;;2.4;;
73315;SDS011;61545;53.726;-0.444;2023-05-23T22:43:20;8.6;;;2.7;;
73315;SDS011;61545;53.726;-0.444;2023-05-23T22:53:20;13.3;;;3.2;;
73315;SDS011;61545;53.726;-0.444;2023-05-23T22:58:11;13.3;;;3.2;;
73315;SDS011;61545;53.726;-0.444;2023-05-23T23:03:11;11.0;;;2.5;;
73315;SDS011;61545;53.726;-0.444;2023-05-23T23:08:08;10.1;;;2.7;;
73315;SDS011;61545;53.726;-0.444;2023-05-23T23:13:10;10.8;;;2.8;;
73315;SDS011;61545;53.726;-0.444;2023-05-23T23:23:11;11.5;;;2.7;;
73315;SDS011;61545;53.726;-0.444;2023-05-23T23:28:10;11.5;;;2.7;;
73315;SDS011;61545;53.726;-0.444;2023-05-23T23:38:17;11.2;;;2.6;;
73315;SDS011;61545;53.726;-0.444;2023-05-23T23:43:11;9.6;;;2.6;;
73315;SDS011;61545;53.726;-0.444;2023-05-23T23:48:19;10.5;;;2.8;;
73315;SDS011;61545;53.726;-0.444;2023-05-23T23:58:13;11.3;;;2.6;;
